createdAt,value
2018-06-07T04:10:02.979Z,1007.81
2018-06-07T04:10:28.444Z,1007.77
2018-06-07T04:10:53.986Z,1007.8
2018-06-07T04:11:19.497Z,1007.74
2018-06-07T04:11:44.969Z,1007.74
2018-06-07T04:12:10.470Z,1007.76
2018-06-07T04:12:36.016Z,1007.74
2018-06-07T04:13:39.617Z,1007.76
2018-06-07T04:14:05.170Z,1007.76
2018-06-07T04:14:30.671Z,1007.74
2018-06-07T04:14:56.474Z,1007.78
2018-06-07T04:15:21.901Z,1007.79
2018-06-07T04:15:47.543Z,1007.78
2018-06-07T04:16:13.097Z,1007.74
2018-06-07T04:16:38.534Z,1007.78
2018-06-07T04:17:04.050Z,1007.78
2018-06-07T04:17:29.625Z,1007.79
2018-06-07T04:17:55.179Z,1007.77
2018-06-07T04:18:20.706Z,1007.79
2018-06-07T04:18:46.125Z,1007.77
2018-06-07T04:19:11.692Z,1007.78
2018-06-07T04:19:37.211Z,1007.8
2018-06-07T04:20:02.683Z,1007.78
2018-06-07T04:20:28.297Z,1007.8
2018-06-07T04:20:53.693Z,1007.79
2018-06-07T04:21:19.241Z,1007.8
2018-06-07T04:21:44.637Z,1007.8
2018-06-07T04:22:10.252Z,1007.77
2018-06-07T04:22:35.689Z,1007.8
2018-06-07T04:23:01.546Z,1007.78
2018-06-07T04:23:27.127Z,1007.75
2018-06-07T04:23:52.625Z,1007.78
2018-06-07T04:24:18.501Z,1007.79
2018-06-07T04:24:44.358Z,1007.81
2018-06-07T04:25:10.077Z,1007.81
2018-06-07T04:25:35.699Z,1007.8
2018-06-07T04:26:01.311Z,1007.77
2018-06-07T04:26:26.812Z,1007.78
2018-06-07T04:26:52.373Z,1007.78
2018-06-07T04:27:17.904Z,1007.82
2018-06-07T04:27:43.391Z,1007.81
2018-06-07T04:29:03.334Z,1007.78
2018-06-07T04:29:28.813Z,1007.77
2018-06-07T04:29:54.301Z,1007.77
2018-06-07T04:30:19.786Z,1007.79
2018-06-07T04:30:45.292Z,1007.8
2018-06-07T04:31:10.823Z,1007.79
2018-06-07T04:31:36.337Z,1007.8
2018-06-07T04:32:01.852Z,1007.82
2018-06-07T04:32:27.327Z,1007.82
2018-06-07T04:32:52.910Z,1007.8
2018-06-07T04:33:18.420Z,1007.81
2018-06-07T04:33:44.002Z,1007.8
2018-06-07T04:34:09.508Z,1007.81
2018-06-07T04:34:35.009Z,1007.82
2018-06-07T04:35:00.576Z,1007.84
2018-06-07T04:35:26.099Z,1007.8
2018-06-07T04:35:51.621Z,1007.85
2018-06-07T04:36:17.103Z,1007.84
2018-06-07T04:36:42.688Z,1007.85
2018-06-07T04:37:08.213Z,1007.84
2018-06-07T04:37:33.690Z,1007.85
2018-06-07T04:37:59.287Z,1007.86
2018-06-07T04:38:24.790Z,1007.86
2018-06-07T04:38:50.320Z,1007.88
2018-06-07T04:39:15.830Z,1007.8
2018-06-07T04:39:41.345Z,1007.82
2018-06-07T04:40:40.140Z,1007.88
2018-06-07T04:41:05.607Z,1007.86
2018-06-07T04:41:31.185Z,1007.87
2018-06-07T04:41:56.686Z,1007.9
2018-06-07T04:42:22.186Z,1007.92
2018-06-07T04:42:47.736Z,1007.95
2018-06-07T04:43:13.260Z,1007.93
2018-06-07T04:44:11.792Z,1007.96
2018-06-07T04:44:37.269Z,1007.92
2018-06-07T04:45:02.816Z,1007.96
2018-06-07T04:45:28.295Z,1007.96
2018-06-07T04:45:53.880Z,1007.94
2018-06-07T04:46:19.318Z,1007.95
2018-06-07T04:46:44.822Z,1007.92
2018-06-07T04:47:10.706Z,1007.94
2018-06-07T04:47:36.215Z,1007.94
2018-06-07T04:48:01.695Z,1007.94
2018-06-07T04:48:27.202Z,1007.94
2018-06-07T04:48:52.712Z,1007.96
2018-06-07T04:49:18.274Z,1007.95
2018-06-07T04:49:43.711Z,1008
2018-06-07T04:50:09.197Z,1007.94
2018-06-07T04:50:34.698Z,1007.95
2018-06-07T04:51:00.204Z,1007.95
2018-06-07T04:51:25.698Z,1007.97
2018-06-07T04:51:51.266Z,1007.96
2018-06-07T04:52:16.745Z,1007.95
2018-06-07T04:52:42.294Z,1007.92
2018-06-07T04:53:07.793Z,1007.93
2018-06-07T04:53:33.362Z,1007.96
2018-06-07T04:53:58.884Z,1007.95
2018-06-07T04:54:24.380Z,1007.92
2018-06-07T04:55:38.164Z,1008.01
2018-06-07T04:56:03.649Z,1007.96
2018-06-07T04:56:29.105Z,1007.96
2018-06-07T04:56:54.593Z,1007.97
2018-06-07T04:57:20.075Z,1008
2018-06-07T04:57:45.529Z,1008
2018-06-07T04:58:11.101Z,1007.96
2018-06-07T04:58:36.607Z,1007.96
2018-06-07T04:59:02.114Z,1007.97
2018-06-07T04:59:27.637Z,1008.01
2018-06-07T04:59:53.162Z,1007.98
2018-06-07T05:00:18.736Z,1007.99
2018-06-07T05:00:44.251Z,1008.04
2018-06-07T05:01:09.816Z,1008
2018-06-07T05:01:35.373Z,1008.05
2018-06-07T05:02:00.859Z,1008.04
2018-06-07T05:02:26.358Z,1008.05
2018-06-07T05:02:51.908Z,1008.07
2018-06-07T05:03:17.580Z,1008.05
2018-06-07T05:03:43.153Z,1008.08
2018-06-07T05:04:08.668Z,1008.06
2018-06-07T05:04:34.158Z,1008.08
2018-06-07T05:04:59.688Z,1008.06
2018-06-07T05:05:25.282Z,1008.08
2018-06-07T05:05:50.848Z,1008.01
2018-06-07T05:07:58.150Z,1008.06
2018-06-07T05:08:23.628Z,1008.08
2018-06-07T05:08:49.075Z,1008.07
2018-06-07T05:09:14.581Z,1008.08
2018-06-07T05:09:40.170Z,1008.11
2018-06-07T05:10:05.773Z,1008.1
2018-06-07T05:10:31.156Z,1008.15
2018-06-07T05:10:56.698Z,1008.11
2018-06-07T05:11:22.143Z,1008.16
2018-06-07T05:11:47.621Z,1008.15
2018-06-07T05:12:13.163Z,1008.13
2018-06-07T05:12:38.742Z,1008.1
2018-06-07T05:13:04.181Z,1008.16
2018-06-07T05:13:29.623Z,1008.18
2018-06-07T05:13:55.117Z,1008.19
2018-06-07T05:14:20.715Z,1008.18
2018-06-07T05:14:46.228Z,1008.2
2018-06-07T05:15:11.803Z,1008.25
2018-06-07T05:15:37.356Z,1008.26
2018-06-07T05:16:02.993Z,1008.23
2018-06-07T05:16:28.531Z,1008.26
2018-06-07T05:16:53.981Z,1008.24
2018-06-07T05:17:19.495Z,1008.3
2018-06-07T05:17:45.022Z,1008.29
2018-06-07T05:18:10.593Z,1008.3
2018-06-07T05:18:36.119Z,1008.29
2018-06-07T05:19:01.639Z,1008.3
2018-06-07T05:19:27.200Z,1008.3
2018-06-07T05:19:52.634Z,1008.35
2018-06-07T05:20:18.134Z,1008.35
2018-06-07T05:20:43.620Z,1008.29
2018-06-07T05:21:09.135Z,1008.29
2018-06-07T05:21:34.612Z,1008.33
2018-06-07T05:22:00.185Z,1008.29
2018-06-07T05:22:25.650Z,1008.25
2018-06-07T05:22:51.127Z,1008.27
2018-06-07T05:23:16.711Z,1008.28
2018-06-07T05:23:42.285Z,1008.25
2018-06-07T05:24:07.764Z,1008.25
2018-06-07T05:24:33.267Z,1008.22
2018-06-07T05:24:58.860Z,1008.24
2018-06-07T05:25:24.339Z,1008.22
2018-06-07T05:25:49.886Z,1008.22
2018-06-07T05:26:15.401Z,1008.24
2018-06-07T05:26:40.907Z,1008.27
2018-06-07T05:27:06.579Z,1008.22
2018-06-07T05:27:32.029Z,1008.21
2018-06-07T05:27:57.487Z,1008.22
2018-06-07T05:28:23.049Z,1008.22
2018-06-07T05:28:48.526Z,1008.26
2018-06-07T05:29:14.025Z,1008.22
2018-06-07T05:29:39.522Z,1008.23
2018-06-07T05:30:05.024Z,1008.23
2018-06-07T05:30:30.856Z,1008.23
2018-06-07T05:30:56.066Z,1008.27
2018-06-07T05:31:22.077Z,1008.27
2018-06-07T05:31:47.548Z,1008.28
2018-06-07T05:32:13.184Z,1008.31
2018-06-07T05:32:39.011Z,1008.29
2018-06-07T05:33:04.887Z,1008.29
2018-06-07T05:33:30.277Z,1008.27
2018-06-07T05:33:55.901Z,1008.27
2018-06-07T05:34:21.395Z,1008.29
2018-06-07T05:34:46.928Z,1008.28
2018-06-07T05:35:12.461Z,1008.29
2018-06-07T05:35:37.929Z,1008.26
2018-06-07T05:36:03.445Z,1008.25
2018-06-07T05:36:28.927Z,1008.24
2018-06-07T05:36:54.465Z,1008.23
2018-06-07T05:37:19.941Z,1008.25
2018-06-07T05:37:45.452Z,1008.26
2018-06-07T05:38:10.967Z,1008.24
2018-06-07T05:38:36.847Z,1008.26
2018-06-07T05:39:02.284Z,1008.29
2018-06-07T05:39:27.770Z,1008.25
2018-06-07T05:39:53.286Z,1008.25
2018-06-07T05:40:18.852Z,1008.28
2018-06-07T05:40:44.358Z,1008.28
2018-06-07T05:41:09.814Z,1008.3
2018-06-07T05:41:35.346Z,1008.29
2018-06-07T05:42:00.847Z,1008.31
2018-06-07T05:42:26.339Z,1008.35
2018-06-07T05:42:51.857Z,1008.34
2018-06-07T05:43:17.359Z,1008.35
2018-06-07T05:43:43.127Z,1008.36
2018-06-07T05:44:08.707Z,1008.37
2018-06-07T05:44:34.198Z,1008.39
2018-06-07T05:44:59.698Z,1008.41
2018-06-07T05:45:25.216Z,1008.42
2018-06-07T05:45:50.742Z,1008.4
2018-06-07T05:46:16.306Z,1008.42
2018-06-07T05:46:41.807Z,1008.46
2018-06-07T05:47:07.379Z,1008.37
2018-06-07T05:47:32.979Z,1008.39
2018-06-07T05:47:58.495Z,1008.43
2018-06-07T05:48:24.045Z,1008.41
2018-06-07T05:48:49.540Z,1008.43
2018-06-07T05:49:15.034Z,1008.44
2018-06-07T05:49:40.562Z,1008.42
2018-06-07T05:50:06.038Z,1008.42
2018-06-07T05:50:31.558Z,1008.44
2018-06-07T05:50:57.108Z,1008.4
2018-06-07T05:51:22.597Z,1008.44
2018-06-07T05:51:48.102Z,1008.46
2018-06-07T05:52:13.570Z,1008.43
2018-06-07T05:52:39.076Z,1008.39
2018-06-07T05:53:04.781Z,1008.41
2018-06-07T05:53:30.401Z,1008.37
2018-06-07T05:53:55.888Z,1008.43
2018-06-07T05:54:21.394Z,1008.39
2018-06-07T05:54:46.821Z,1008.37
2018-06-07T05:55:12.319Z,1008.4
2018-06-07T05:55:37.807Z,1008.38
2018-06-07T05:56:03.327Z,1008.4
2018-06-07T05:56:28.826Z,1008.38
2018-06-07T05:56:54.424Z,1008.4
2018-06-07T05:57:19.865Z,1008.43
2018-06-07T05:57:45.690Z,1008.4
2018-06-07T05:58:11.553Z,1008.43
2018-06-07T05:58:37.043Z,1008.42
2018-06-07T05:59:02.579Z,1008.42
2018-06-07T05:59:28.165Z,1008.42
2018-06-07T05:59:53.574Z,1008.45
2018-06-07T06:00:19.181Z,1008.46
2018-06-07T06:00:44.586Z,1008.49
2018-06-07T06:01:10.142Z,1008.5
2018-06-07T06:01:35.709Z,1008.51
2018-06-07T06:02:01.440Z,1008.53
2018-06-07T06:02:27.058Z,1008.51
2018-06-07T06:02:52.584Z,1008.53
2018-06-07T06:03:18.168Z,1008.53
2018-06-07T06:03:43.611Z,1008.55
2018-06-07T06:04:09.092Z,1008.54
2018-06-07T06:04:34.704Z,1008.55
2018-06-07T06:05:00.204Z,1008.55
2018-06-07T06:05:25.714Z,1008.49
2018-06-07T06:05:51.251Z,1008.48
2018-06-07T06:06:16.893Z,1008.51
2018-06-07T06:06:42.409Z,1008.51
2018-06-07T06:07:07.896Z,1008.47
2018-06-07T06:07:33.488Z,1008.47
2018-06-07T06:07:59.064Z,1008.46
2018-06-07T06:08:24.546Z,1008.51
2018-06-07T06:08:50.047Z,1008.47
2018-06-07T06:09:15.634Z,1008.45
2018-06-07T06:09:41.216Z,1008.48
2018-06-07T06:10:06.696Z,1008.46
2018-06-07T06:10:32.218Z,1008.46
2018-06-07T06:11:46.287Z,1008.55
2018-06-07T06:12:11.816Z,1008.53
2018-06-07T06:12:37.292Z,1008.49
2018-06-07T06:13:02.982Z,1008.47
2018-06-07T06:13:28.471Z,1008.49
2018-06-07T06:13:54.034Z,1008.49
2018-06-07T06:15:02.721Z,1008.43
2018-06-07T06:15:28.254Z,1008.45
2018-06-07T06:15:53.758Z,1008.44
2018-06-07T06:16:19.260Z,1008.45
2018-06-07T06:16:44.737Z,1008.44
2018-06-07T06:17:10.279Z,1008.45
2018-06-07T06:17:35.815Z,1008.47
2018-06-07T06:18:01.288Z,1008.46
2018-06-07T06:18:26.850Z,1008.48
2018-06-07T06:18:52.369Z,1008.49
2018-06-07T06:19:17.914Z,1008.5
2018-06-07T06:19:43.384Z,1008.53
2018-06-07T06:21:35.933Z,1008.56
2018-06-07T06:22:01.421Z,1008.52
2018-06-07T06:23:06.422Z,1008.53
2018-06-07T06:23:32.527Z,1008.54
2018-06-07T06:23:58.257Z,1008.54
2018-06-07T06:24:23.836Z,1008.54
2018-06-07T06:24:49.338Z,1008.52
2018-06-07T06:25:14.829Z,1008.51
2018-06-07T06:25:40.358Z,1008.51
2018-06-07T06:26:05.854Z,1008.51
2018-06-07T06:26:31.365Z,1008.49
2018-06-07T06:26:56.909Z,1008.49
2018-06-07T06:27:22.471Z,1008.42
2018-06-07T06:27:47.963Z,1008.41
2018-06-07T06:28:13.394Z,1008.42
2018-06-07T06:28:38.919Z,1008.43
2018-06-07T06:29:04.444Z,1008.43
2018-06-07T06:29:29.962Z,1008.45
2018-06-07T06:29:55.464Z,1008.43
2018-06-07T06:30:21.093Z,1008.47
2018-06-07T06:30:46.640Z,1008.48
2018-06-07T06:31:49.803Z,1008.48
2018-06-07T06:32:15.315Z,1008.48
2018-06-07T06:32:40.856Z,1008.51
2018-06-07T06:33:06.388Z,1008.47
2018-06-07T06:33:31.961Z,1008.51
2018-06-07T06:33:57.524Z,1008.54
2018-06-07T06:34:23.053Z,1008.49
2018-06-07T06:34:48.555Z,1008.49
2018-06-07T06:35:14.049Z,1008.49
2018-06-07T06:35:39.543Z,1008.48
2018-06-07T06:36:05.044Z,1008.47
2018-06-07T06:36:30.665Z,1008.48
2018-06-07T06:36:56.106Z,1008.47
2018-06-07T06:37:21.665Z,1008.42
2018-06-07T06:37:47.127Z,1008.4
2018-06-07T06:38:12.671Z,1008.42
2018-06-07T06:38:38.175Z,1008.42
2018-06-07T06:39:03.723Z,1008.41
2018-06-07T06:39:29.268Z,1008.43
2018-06-07T06:39:54.715Z,1008.4
2018-06-07T06:40:20.257Z,1008.4
2018-06-07T06:40:45.818Z,1008.45
2018-06-07T06:41:11.334Z,1008.45
2018-06-07T06:41:36.754Z,1008.44
2018-06-07T06:42:02.293Z,1008.45
2018-06-07T06:42:27.789Z,1008.47
2018-06-07T06:42:53.376Z,1008.51
2018-06-07T06:43:18.910Z,1008.46
2018-06-07T06:43:44.430Z,1008.51
2018-06-07T06:44:09.944Z,1008.51
2018-06-07T06:44:35.411Z,1008.5
2018-06-07T06:45:00.955Z,1008.51
2018-06-07T06:45:26.536Z,1008.47
2018-06-07T06:45:52.080Z,1008.47
2018-06-07T06:46:17.649Z,1008.51
2018-06-07T06:46:43.119Z,1008.5
2018-06-07T06:47:08.621Z,1008.49
2018-06-07T06:47:34.176Z,1008.49
2018-06-07T06:47:59.696Z,1008.45
2018-06-07T06:48:25.545Z,1008.48
2018-06-07T06:48:51.175Z,1008.45
2018-06-07T06:49:16.757Z,1008.41
2018-06-07T06:49:42.244Z,1008.44
2018-06-07T06:50:07.772Z,1008.36
2018-06-07T06:51:16.528Z,1008.41
2018-06-07T06:51:42.043Z,1008.34
2018-06-07T06:52:07.615Z,1008.36
2018-06-07T06:52:33.098Z,1008.31
2018-06-07T06:52:58.629Z,1008.36
2018-06-07T06:53:24.132Z,1008.35
2018-06-07T06:53:49.612Z,1008.33
2018-06-07T06:54:15.102Z,1008.34
2018-06-07T06:54:40.714Z,1008.38
2018-06-07T06:55:06.179Z,1008.35
2018-06-07T06:55:31.650Z,1008.4
2018-06-07T06:55:57.133Z,1008.38
2018-06-07T06:56:22.734Z,1008.35
2018-06-07T06:56:48.291Z,1008.38
2018-06-07T06:57:13.835Z,1008.38
2018-06-07T06:57:39.350Z,1008.36
2018-06-07T06:58:04.905Z,1008.38
2018-06-07T06:58:30.493Z,1008.35
2018-06-07T06:58:55.965Z,1008.39
2018-06-07T06:59:21.551Z,1008.38
2018-06-07T06:59:47.023Z,1008.35
2018-06-07T07:00:12.544Z,1008.37
2018-06-07T07:00:38.057Z,1008.36
2018-06-07T07:01:03.625Z,1008.37
2018-06-07T07:01:29.324Z,1008.37
2018-06-07T07:01:55.133Z,1008.36
2018-06-07T07:02:20.627Z,1008.35
2018-06-07T07:02:46.155Z,1008.42
2018-06-07T07:03:11.670Z,1008.41
2018-06-07T07:03:37.218Z,1008.39
2018-06-07T07:04:02.821Z,1008.36
2018-06-07T07:04:28.451Z,1008.36
2018-06-07T07:04:53.989Z,1008.37
2018-06-07T07:05:19.519Z,1008.37
2018-06-07T07:05:45.051Z,1008.38
2018-06-07T07:06:10.538Z,1008.36
2018-06-07T07:06:36.218Z,1008.39
2018-06-07T07:07:01.839Z,1008.37
2018-06-07T07:07:27.292Z,1008.4
2018-06-07T07:07:52.785Z,1008.35
2018-06-07T07:08:18.257Z,1008.35
2018-06-07T07:08:43.848Z,1008.39
2018-06-07T07:09:09.577Z,1008.38
2018-06-07T07:09:34.880Z,1008.38
2018-06-07T07:10:00.501Z,1008.37
2018-06-07T07:10:26.100Z,1008.37
2018-06-07T07:10:52.539Z,1008.42
2018-06-07T07:11:17.705Z,1008.43
2018-06-07T07:11:43.159Z,1008.4
2018-06-07T07:12:08.612Z,1008.37
2018-06-07T07:12:34.159Z,1008.39
2018-06-07T07:12:59.639Z,1008.34
2018-06-07T07:13:25.180Z,1008.33
2018-06-07T07:13:50.692Z,1008.34
2018-06-07T07:15:09.160Z,1008.35
2018-06-07T07:15:34.634Z,1008.37
2018-06-07T07:16:00.129Z,1008.35
2018-06-07T07:16:25.623Z,1008.31
2018-06-07T07:16:51.116Z,1008.32
2018-06-07T07:17:16.689Z,1008.35
2018-06-07T07:17:42.161Z,1008.35
2018-06-07T07:18:07.694Z,1008.35
2018-06-07T07:18:33.205Z,1008.34
2018-06-07T07:18:58.789Z,1008.37
2018-06-07T07:19:24.254Z,1008.35
2018-06-07T07:19:49.790Z,1008.37
2018-06-07T07:20:15.269Z,1008.37
2018-06-07T07:20:40.779Z,1008.35
2018-06-07T07:21:06.305Z,1008.38
2018-06-07T07:21:32.066Z,1008.37
2018-06-07T07:21:57.570Z,1008.4
2018-06-07T07:22:23.015Z,1008.4
2018-06-07T07:22:48.679Z,1008.41
2018-06-07T07:23:14.429Z,1008.38
2018-06-07T07:23:40.038Z,1008.38
2018-06-07T07:24:05.572Z,1008.38
2018-06-07T07:24:31.052Z,1008.4
2018-06-07T07:24:56.562Z,1008.41
2018-06-07T07:25:22.047Z,1008.41
2018-06-07T07:25:47.511Z,1008.38
2018-06-07T07:26:12.991Z,1008.37
2018-06-07T07:26:38.506Z,1008.4
2018-06-07T07:27:03.994Z,1008.36
2018-06-07T07:27:29.494Z,1008.38
2018-06-07T07:27:55.058Z,1008.39
2018-06-07T07:28:20.522Z,1008.41
2018-06-07T07:28:45.984Z,1008.4
2018-06-07T07:29:11.488Z,1008.41
2018-06-07T07:29:36.984Z,1008.41
2018-06-07T07:30:02.565Z,1008.39
2018-06-07T07:30:28.076Z,1008.4
2018-06-07T07:30:53.574Z,1008.39
2018-06-07T07:31:19.093Z,1008.45
2018-06-07T07:31:44.577Z,1008.48
2018-06-07T07:32:10.071Z,1008.48
2018-06-07T07:32:35.563Z,1008.43
2018-06-07T07:33:01.056Z,1008.46
2018-06-07T07:33:26.547Z,1008.46
2018-06-07T07:33:52.021Z,1008.44
2018-06-07T07:34:17.523Z,1008.44
2018-06-07T07:34:43.049Z,1008.4
2018-06-07T07:35:08.593Z,1008.42
2018-06-07T07:35:34.115Z,1008.49
2018-06-07T07:35:59.628Z,1008.43
2018-06-07T07:36:25.144Z,1008.42
2018-06-07T07:36:50.652Z,1008.43
2018-06-07T07:37:16.166Z,1008.44
2018-06-07T07:37:41.780Z,1008.42
2018-06-07T07:38:07.401Z,1008.44
2018-06-07T07:38:32.891Z,1008.42
2018-06-07T07:38:58.391Z,1008.42
2018-06-07T07:39:24.305Z,1008.39
2018-06-07T07:39:49.916Z,1008.41
2018-06-07T07:40:15.403Z,1008.44
2018-06-07T07:40:40.964Z,1008.45
2018-06-07T07:41:06.472Z,1008.41
2018-06-07T07:41:31.982Z,1008.39
2018-06-07T07:41:57.491Z,1008.43
2018-06-07T07:42:23.029Z,1008.38
2018-06-07T07:42:48.611Z,1008.44
2018-06-07T07:43:14.071Z,1008.38
2018-06-07T07:43:39.600Z,1008.42
2018-06-07T07:44:05.076Z,1008.4
2018-06-07T07:44:30.559Z,1008.35
2018-06-07T07:44:56.036Z,1008.36
2018-06-07T07:46:04.281Z,1008.41
2018-06-07T07:46:29.805Z,1008.38
2018-06-07T07:46:55.314Z,1008.37
2018-06-07T07:47:20.813Z,1008.34
2018-06-07T07:47:46.329Z,1008.34
2018-06-07T07:48:11.875Z,1008.34
2018-06-07T07:48:37.372Z,1008.37
2018-06-07T07:49:02.880Z,1008.37
2018-06-07T07:49:28.376Z,1008.34
2018-06-07T07:49:53.898Z,1008.37
2018-06-07T07:50:19.358Z,1008.34
2018-06-07T07:50:44.801Z,1008.38
2018-06-07T07:51:10.309Z,1008.35
2018-06-07T07:51:35.797Z,1008.34
2018-06-07T07:52:01.271Z,1008.33
2018-06-07T07:52:26.779Z,1008.33
2018-06-07T07:52:52.327Z,1008.36
2018-06-07T07:53:17.820Z,1008.33
2018-06-07T07:53:43.356Z,1008.28
2018-06-07T07:54:08.843Z,1008.32
2018-06-07T07:54:34.382Z,1008.33
2018-06-07T07:54:59.896Z,1008.34
2018-06-07T07:55:25.403Z,1008.31
2018-06-07T07:55:50.895Z,1008.33
2018-06-07T07:56:16.419Z,1008.33
2018-06-07T07:56:41.899Z,1008.35
2018-06-07T07:57:07.432Z,1008.37
2018-06-07T07:57:32.913Z,1008.37
2018-06-07T07:57:58.380Z,1008.38
2018-06-07T07:58:24.005Z,1008.39
2018-06-07T07:58:49.530Z,1008.4
2018-06-07T07:59:15.023Z,1008.41
2018-06-07T07:59:40.587Z,1008.39
2018-06-07T08:00:06.041Z,1008.38
2018-06-07T08:00:31.520Z,1008.4
2018-06-07T08:00:57.038Z,1008.38
2018-06-07T08:01:22.536Z,1008.38
2018-06-07T08:01:48.121Z,1008.37
2018-06-07T08:02:13.623Z,1008.41
2018-06-07T08:02:39.127Z,1008.38
2018-06-07T08:03:04.602Z,1008.43
2018-06-07T08:03:30.123Z,1008.34
2018-06-07T08:03:55.670Z,1008.31
2018-06-07T08:04:21.131Z,1008.36
2018-06-07T08:04:46.635Z,1008.37
2018-06-07T08:05:12.181Z,1008.34
2018-06-07T08:05:37.862Z,1008.34
2018-06-07T08:06:03.316Z,1008.35
2018-06-07T08:06:28.858Z,1008.34
2018-06-07T08:06:54.383Z,1008.35
2018-06-07T08:07:19.903Z,1008.34
2018-06-07T08:07:45.457Z,1008.36
2018-06-07T08:08:10.996Z,1008.32
2018-06-07T08:08:36.506Z,1008.37
2018-06-07T08:09:01.962Z,1008.35
2018-06-07T08:09:27.431Z,1008.32
2018-06-07T08:09:53.011Z,1008.31
2018-06-07T08:10:18.531Z,1008.3
2018-06-07T08:10:44.024Z,1008.34
2018-06-07T08:11:09.491Z,1008.36
2018-06-07T08:11:34.993Z,1008.37
2018-06-07T08:12:00.476Z,1008.36
2018-06-07T08:12:25.977Z,1008.34
2018-06-07T08:12:51.489Z,1008.35
2018-06-07T08:13:17.023Z,1008.37
2018-06-07T08:13:42.551Z,1008.35
2018-06-07T08:14:08.069Z,1008.35
2018-06-07T08:14:33.595Z,1008.36
2018-06-07T08:14:59.232Z,1008.36
2018-06-07T08:15:24.754Z,1008.33
2018-06-07T08:15:50.251Z,1008.34
2018-06-07T08:16:15.708Z,1008.35
2018-06-07T08:16:41.300Z,1008.36
2018-06-07T08:17:06.841Z,1008.37
2018-06-07T08:17:32.351Z,1008.33
2018-06-07T08:17:57.856Z,1008.35
2018-06-07T08:18:23.354Z,1008.35
2018-06-07T08:18:48.866Z,1008.38
2018-06-07T08:19:14.385Z,1008.38
2018-06-07T08:19:39.920Z,1008.36
2018-06-07T08:20:05.381Z,1008.37
2018-06-07T08:20:30.923Z,1008.4
2018-06-07T08:20:56.471Z,1008.37
2018-06-07T08:21:22.048Z,1008.34
2018-06-07T08:21:47.531Z,1008.35
2018-06-07T08:22:13.125Z,1008.35
2018-06-07T08:22:38.536Z,1008.35
2018-06-07T08:23:04.078Z,1008.37
2018-06-07T08:23:29.636Z,1008.37
2018-06-07T08:23:55.218Z,1008.34
2018-06-07T08:24:20.746Z,1008.33
2018-06-07T08:24:46.425Z,1008.36
2018-06-07T08:25:11.928Z,1008.38
2018-06-07T08:25:37.441Z,1008.33
2018-06-07T08:26:03.033Z,1008.37
2018-06-07T08:26:28.453Z,1008.36
2018-06-07T08:26:54.020Z,1008.35
2018-06-07T08:27:19.601Z,1008.32
2018-06-07T08:27:45.110Z,1008.3
2018-06-07T08:28:10.714Z,1008.31
2018-06-07T08:28:36.177Z,1008.35
2018-06-07T08:29:01.666Z,1008.32
2018-06-07T08:29:27.207Z,1008.32
2018-06-07T08:29:52.740Z,1008.32
2018-06-07T08:30:18.258Z,1008.34
2018-06-07T08:30:43.898Z,1008.33
2018-06-07T08:31:09.304Z,1008.32
2018-06-07T08:31:34.790Z,1008.35
2018-06-07T08:32:00.314Z,1008.29
2018-06-07T08:32:25.838Z,1008.36
2018-06-07T08:32:51.310Z,1008.33
2018-06-07T08:33:16.883Z,1008.31
2018-06-07T08:33:42.418Z,1008.3
2018-06-07T08:34:07.966Z,1008.33
2018-06-07T08:34:33.520Z,1008.34
2018-06-07T08:34:59.024Z,1008.35
2018-06-07T08:35:24.585Z,1008.34
2018-06-07T08:35:50.125Z,1008.32
2018-06-07T08:36:15.683Z,1008.32
2018-06-07T08:36:41.245Z,1008.35
2018-06-07T08:37:06.719Z,1008.34
2018-06-07T08:37:32.235Z,1008.36
2018-06-07T08:37:57.729Z,1008.37
2018-06-07T08:38:23.304Z,1008.33
2018-06-07T08:38:48.797Z,1008.34
2018-06-07T08:39:14.273Z,1008.3
2018-06-07T08:39:39.868Z,1008.35
2018-06-07T08:40:05.348Z,1008.33
2018-06-07T08:40:30.869Z,1008.36
2018-06-07T08:40:56.453Z,1008.38
2018-06-07T08:41:21.916Z,1008.34
2018-06-07T08:41:47.454Z,1008.35
2018-06-07T08:42:12.986Z,1008.38
2018-06-07T08:42:38.559Z,1008.41
2018-06-07T08:43:04.083Z,1008.41
2018-06-07T08:43:29.559Z,1008.42
2018-06-07T08:43:55.109Z,1008.38
2018-06-07T08:44:20.655Z,1008.37
2018-06-07T08:44:46.149Z,1008.43
2018-06-07T08:45:11.604Z,1008.4
2018-06-07T08:45:37.136Z,1008.4
2018-06-07T08:46:02.676Z,1008.42
2018-06-07T08:46:28.197Z,1008.44
2018-06-07T08:46:53.763Z,1008.45
2018-06-07T08:47:19.268Z,1008.41
2018-06-07T08:47:44.775Z,1008.44
2018-06-07T08:48:10.283Z,1008.44
2018-06-07T08:48:35.770Z,1008.45
2018-06-07T08:49:01.285Z,1008.43
2018-06-07T08:49:26.770Z,1008.43
2018-06-07T08:49:52.260Z,1008.39
2018-06-07T08:50:17.789Z,1008.41
2018-06-07T08:50:43.286Z,1008.45
2018-06-07T08:51:08.813Z,1008.42
2018-06-07T08:51:34.281Z,1008.44
2018-06-07T08:51:59.817Z,1008.43
2018-06-07T08:52:25.358Z,1008.44
2018-06-07T08:52:50.843Z,1008.47
2018-06-07T08:53:54.462Z,1008.47
2018-06-07T08:54:19.950Z,1008.45
2018-06-07T08:54:45.497Z,1008.45
2018-06-07T08:55:10.999Z,1008.49
2018-06-07T08:55:36.609Z,1008.5
2018-06-07T08:56:02.102Z,1008.5
2018-06-07T08:56:27.592Z,1008.47
2018-06-07T08:56:53.065Z,1008.47
2018-06-07T08:57:18.594Z,1008.49
2018-06-07T08:57:44.118Z,1008.47
2018-06-07T08:58:09.654Z,1008.48
2018-06-07T08:58:35.181Z,1008.49
2018-06-07T08:59:00.774Z,1008.48
2018-06-07T08:59:26.224Z,1008.49
2018-06-07T08:59:51.693Z,1008.52
2018-06-07T09:00:17.326Z,1008.48
2018-06-07T09:00:42.766Z,1008.52
2018-06-07T09:01:08.230Z,1008.52
2018-06-07T09:01:33.785Z,1008.56
2018-06-07T09:01:59.266Z,1008.49
2018-06-07T09:02:24.779Z,1008.5
2018-06-07T09:02:50.290Z,1008.54
2018-06-07T09:03:15.773Z,1008.52
2018-06-07T09:04:19.398Z,1008.54
2018-06-07T09:04:44.885Z,1008.52
2018-06-07T09:05:10.375Z,1008.56
2018-06-07T09:05:35.947Z,1008.56
2018-06-07T09:06:01.414Z,1008.54
2018-06-07T09:06:26.945Z,1008.55
2018-06-07T09:06:52.452Z,1008.56
2018-06-07T09:07:17.911Z,1008.55
2018-06-07T09:07:43.472Z,1008.54
2018-06-07T09:08:08.935Z,1008.55
2018-06-07T09:08:34.445Z,1008.53
2018-06-07T09:08:59.977Z,1008.51
2018-06-07T09:09:25.453Z,1008.55
2018-06-07T09:09:50.979Z,1008.58
2018-06-07T09:10:16.513Z,1008.55
2018-06-07T09:10:42.039Z,1008.56
2018-06-07T09:11:07.582Z,1008.55
2018-06-07T09:11:33.093Z,1008.58
2018-06-07T09:11:58.560Z,1008.58
2018-06-07T09:12:24.081Z,1008.59
2018-06-07T09:13:37.528Z,1008.55
2018-06-07T09:14:02.994Z,1008.52
2018-06-07T09:14:28.567Z,1008.54
2018-06-07T09:14:54.084Z,1008.57
2018-06-07T09:15:19.570Z,1008.57
2018-06-07T09:15:45.048Z,1008.57
2018-06-07T09:16:10.528Z,1008.57
2018-06-07T09:16:36.045Z,1008.58
2018-06-07T09:17:01.561Z,1008.57
2018-06-07T09:17:27.148Z,1008.54
2018-06-07T09:17:52.645Z,1008.55
2018-06-07T09:18:18.190Z,1008.54
2018-06-07T09:18:43.663Z,1008.55
2018-06-07T09:19:09.134Z,1008.63
2018-06-07T09:19:34.645Z,1008.6
2018-06-07T09:20:38.514Z,1008.58
2018-06-07T09:21:04.069Z,1008.57
2018-06-07T09:21:29.599Z,1008.58
2018-06-07T09:21:55.045Z,1008.57
2018-06-07T09:22:20.618Z,1008.56
2018-06-07T09:22:46.140Z,1008.57
2018-06-07T09:23:11.607Z,1008.56
2018-06-07T09:23:37.134Z,1008.6
2018-06-07T09:24:02.660Z,1008.6
2018-06-07T09:24:28.146Z,1008.58
2018-06-07T09:24:53.656Z,1008.61
2018-06-07T09:25:19.137Z,1008.61
2018-06-07T09:25:44.754Z,1008.6
2018-06-07T09:26:10.314Z,1008.59
2018-06-07T09:26:35.898Z,1008.61
2018-06-07T09:27:01.411Z,1008.61
2018-06-07T09:27:26.928Z,1008.6
2018-06-07T09:27:52.447Z,1008.63
2018-06-07T09:28:17.929Z,1008.62
2018-06-07T09:28:43.418Z,1008.64
2018-06-07T09:29:08.931Z,1008.64
2018-06-07T09:29:34.482Z,1008.62
2018-06-07T09:29:59.954Z,1008.63
2018-06-07T09:30:25.393Z,1008.62
2018-06-07T09:30:50.911Z,1008.59
2018-06-07T09:31:16.406Z,1008.61
2018-06-07T09:32:34.843Z,1008.6
2018-06-07T09:33:00.305Z,1008.63
2018-06-07T09:33:25.779Z,1008.65
2018-06-07T09:33:51.301Z,1008.61
2018-06-07T09:34:16.855Z,1008.66
2018-06-07T09:34:42.420Z,1008.66
2018-06-07T09:35:07.929Z,1008.62